createdAt,value
2023-05-18T00:01:34.086Z,2.00
2023-05-18T00:04:02.294Z,1.80
2023-05-18T00:06:29.842Z,1.97
2023-05-18T00:08:57.313Z,1.57
2023-05-18T00:11:24.529Z,2.07
2023-05-18T00:13:51.742Z,1.67
2023-05-18T00:16:18.976Z,2.40
2023-05-18T00:18:46.339Z,2.13
2023-05-18T00:21:16.212Z,1.50
2023-05-18T00:23:49.479Z,2.00
2023-05-18T00:26:16.694Z,1.90
2023-05-18T00:28:43.892Z,2.33
2023-05-18T00:31:11.165Z,1.83
2023-05-18T00:33:38.489Z,2.07
2023-05-18T00:36:05.928Z,2.10
2023-05-18T00:38:33.197Z,2.57
2023-05-18T00:41:00.569Z,2.00
2023-05-18T00:43:27.763Z,2.10
2023-05-18T00:45:55.078Z,2.03
2023-05-18T00:48:22.404Z,2.13
2023-05-18T00:50:49.648Z,2.10
2023-05-18T00:53:16.893Z,2.30
2023-05-18T00:55:44.147Z,2.27
2023-05-18T00:58:14.327Z,2.27
2023-05-18T01:00:41.678Z,2.07
2023-05-18T01:03:11.309Z,1.80
2023-05-18T01:05:38.937Z,2.03
2023-05-18T01:08:06.285Z,1.87
2023-05-18T01:10:34.552Z,2.27
2023-05-18T01:13:03.569Z,2.00
2023-05-18T01:15:34.640Z,2.03
2023-05-18T01:18:21.916Z,2.10
2023-05-18T01:20:58.101Z,2.50
2023-05-18T01:23:45.022Z,2.50
2023-05-18T01:26:15.292Z,2.00
2023-05-18T01:28:44.096Z,2.50
2023-05-18T01:31:11.658Z,2.17
2023-05-18T01:33:38.987Z,2.10
2023-05-18T01:36:06.493Z,2.47
2023-05-18T01:38:34.339Z,1.97
2023-05-18T01:41:12.198Z,2.10
2023-05-18T01:43:43.209Z,2.57
2023-05-18T01:46:18.599Z,2.67
2023-05-18T01:48:49.592Z,2.50
2023-05-18T01:51:18.758Z,2.63
2023-05-18T01:53:47.557Z,2.07
2023-05-18T01:56:15.800Z,1.90
2023-05-18T01:58:44.487Z,1.87
2023-05-18T02:01:11.910Z,2.27
2023-05-18T02:03:39.328Z,2.03
2023-05-18T02:06:06.759Z,2.40
2023-05-18T02:08:34.051Z,2.10
2023-05-18T02:11:01.332Z,2.37
2023-05-18T02:13:28.523Z,2.40
2023-05-18T02:15:56.160Z,2.73
2023-05-18T02:18:23.641Z,2.77
2023-05-18T02:20:51.183Z,2.47
2023-05-18T02:23:18.378Z,3.03
2023-05-18T02:25:46.753Z,2.53
2023-05-18T02:28:13.940Z,2.27
2023-05-18T02:30:41.315Z,2.67
2023-05-18T02:33:09.204Z,2.63
2023-05-18T02:35:36.563Z,2.70
2023-05-18T02:38:04.211Z,2.50
2023-05-18T02:40:31.471Z,2.47
2023-05-18T02:42:58.683Z,2.57
2023-05-18T02:45:25.925Z,2.80
2023-05-18T02:47:53.166Z,2.67
2023-05-18T02:50:23.404Z,1.77
2023-05-18T02:52:51.916Z,2.30
2023-05-18T02:55:19.168Z,2.13
2023-05-18T02:57:47.130Z,2.40
2023-05-18T03:00:16.946Z,2.00
2023-05-18T03:02:44.522Z,2.00
2023-05-18T03:05:11.963Z,1.90
2023-05-18T03:07:39.225Z,2.30
2023-05-18T03:10:07.785Z,2.37
2023-05-18T03:12:36.173Z,2.10
2023-05-18T03:15:04.120Z,2.30
2023-05-18T03:17:31.348Z,2.30
2023-05-18T03:19:58.555Z,2.80
2023-05-18T03:22:25.863Z,2.30
2023-05-18T03:24:55.391Z,2.53
2023-05-18T03:27:26.090Z,2.87
2023-05-18T03:29:54.128Z,2.40
2023-05-18T03:32:21.813Z,2.20
2023-05-18T03:34:49.023Z,2.23
2023-05-18T03:37:16.265Z,2.27
2023-05-18T03:39:43.497Z,2.57
2023-05-18T03:42:10.741Z,2.50
2023-05-18T03:44:37.910Z,2.60
2023-05-18T03:47:05.413Z,2.73
2023-05-18T03:49:34.540Z,2.70
2023-05-18T03:52:03.007Z,3.00
2023-05-18T03:54:30.190Z,2.67
2023-05-18T03:56:57.982Z,2.40
2023-05-18T03:59:25.447Z,2.40
2023-05-18T04:01:53.931Z,2.40
2023-05-18T04:04:23.461Z,2.50
2023-05-18T04:06:53.993Z,2.93
2023-05-18T04:09:23.824Z,2.30
2023-05-18T04:11:51.246Z,2.80
2023-05-18T04:14:18.534Z,2.63
2023-05-18T04:16:46.212Z,2.30
2023-05-18T04:19:13.811Z,2.50
2023-05-18T04:21:43.714Z,2.80
2023-05-18T04:24:14.531Z,2.23
2023-05-18T04:26:42.419Z,3.10
2023-05-18T04:29:10.538Z,5.57
2023-05-18T04:31:40.659Z,7.37
2023-05-18T04:34:09.042Z,7.13
2023-05-18T04:36:39.944Z,7.77
2023-05-18T04:39:07.889Z,7.07
2023-05-18T04:41:35.350Z,6.47
2023-05-18T04:44:03.611Z,6.80
2023-05-18T04:46:31.127Z,5.97
2023-05-18T04:48:58.546Z,4.17
2023-05-18T04:51:25.857Z,3.40
2023-05-18T04:53:53.307Z,2.93
2023-05-18T04:56:22.920Z,2.90
2023-05-18T04:58:50.549Z,3.13
2023-05-18T05:01:17.930Z,3.13
2023-05-18T05:03:45.829Z,2.70
2023-05-18T05:06:13.123Z,2.83
2023-05-18T05:08:40.645Z,2.90
2023-05-18T05:11:07.903Z,2.57
2023-05-18T05:13:36.216Z,2.83
2023-05-18T05:16:03.593Z,3.00
2023-05-18T05:18:30.779Z,3.30
2023-05-18T05:20:59.318Z,2.80
2023-05-18T05:23:26.597Z,2.70
2023-05-18T05:25:53.824Z,2.20
2023-05-18T05:28:21.091Z,2.90
2023-05-18T05:30:48.317Z,2.70
2023-05-18T05:33:15.694Z,2.43
2023-05-18T05:35:43.131Z,2.63
2023-05-18T05:38:10.362Z,2.35
2023-05-18T05:40:37.617Z,2.30
2023-05-18T05:43:06.317Z,2.67
2023-05-18T05:45:33.789Z,2.25
2023-05-18T05:48:01.894Z,2.17
2023-05-18T05:50:30.227Z,1.95
2023-05-18T05:52:57.441Z,1.92
2023-05-18T05:55:24.969Z,1.83
2023-05-18T05:57:52.207Z,2.30
2023-05-18T06:00:19.592Z,1.92
2023-05-18T06:02:46.956Z,1.65
2023-05-18T06:05:14.167Z,1.70
2023-05-18T06:07:41.472Z,2.20
2023-05-18T06:10:11.269Z,1.48
2023-05-18T06:12:38.436Z,1.80
2023-05-18T06:15:06.033Z,1.65
2023-05-18T06:17:34.117Z,2.15
2023-05-18T06:20:01.368Z,1.63
2023-05-18T06:22:28.692Z,2.00
2023-05-18T06:24:55.883Z,1.40
2023-05-18T06:27:23.437Z,1.50
2023-05-18T06:29:50.860Z,1.40
2023-05-18T06:32:18.221Z,1.55
2023-05-18T06:34:50.666Z,1.63
2023-05-18T06:37:19.453Z,1.95
2023-05-18T06:39:46.716Z,1.60
2023-05-18T06:42:13.966Z,1.77
2023-05-18T06:44:41.235Z,1.75
2023-05-18T06:47:08.718Z,1.80
2023-05-18T06:49:36.009Z,1.55
2023-05-18T06:52:03.543Z,1.50
2023-05-18T06:54:30.854Z,1.67
2023-05-18T06:56:58.140Z,1.60
2023-05-18T06:59:26.009Z,1.25
2023-05-18T07:01:53.329Z,1.15
2023-05-18T07:04:20.650Z,1.15
2023-05-18T07:06:47.904Z,1.02
2023-05-18T07:09:15.163Z,1.10
2023-05-18T07:11:42.454Z,1.77
2023-05-18T07:14:10.333Z,1.17
2023-05-18T07:16:37.950Z,1.13
2023-05-18T07:19:05.247Z,1.10
2023-05-18T07:21:32.888Z,1.10
2023-05-18T07:24:00.134Z,0.82
2023-05-18T07:26:27.508Z,1.00
2023-05-18T07:28:55.272Z,1.10
2023-05-18T07:31:22.692Z,1.23
2023-05-18T07:33:50.114Z,1.20
2023-05-18T07:36:17.360Z,1.00
2023-05-18T07:38:44.686Z,1.05
2023-05-18T07:41:11.828Z,1.02
2023-05-18T07:43:39.403Z,1.07
2023-05-18T07:46:07.044Z,1.38
2023-05-18T07:48:34.292Z,1.00
2023-05-18T07:51:01.569Z,0.93
2023-05-18T07:53:30.021Z,0.70
2023-05-18T07:55:57.496Z,1.00
2023-05-18T07:58:24.714Z,0.95
2023-05-18T08:00:52.197Z,1.02
2023-05-18T08:03:19.554Z,1.10
2023-05-18T08:05:46.853Z,1.15
2023-05-18T08:08:15.176Z,1.15
2023-05-18T08:10:42.729Z,1.30
2023-05-18T08:13:09.986Z,1.00
2023-05-18T08:15:38.780Z,0.70
2023-05-18T08:18:06.519Z,1.08
2023-05-18T08:20:33.807Z,0.90
2023-05-18T08:23:01.526Z,0.80
2023-05-18T08:25:28.780Z,0.88
2023-05-18T08:27:56.342Z,0.68
2023-05-18T08:30:23.852Z,0.70
2023-05-18T08:32:51.604Z,0.77
2023-05-18T08:35:18.836Z,0.77
2023-05-18T08:37:46.252Z,1.00
2023-05-18T08:40:14.757Z,0.77
2023-05-18T08:42:50.414Z,0.70
2023-05-18T08:45:36.795Z,0.68
2023-05-18T08:48:04.204Z,0.70
2023-05-18T08:50:32.409Z,0.50
2023-05-18T08:53:05.659Z,1.23
2023-05-18T08:55:36.942Z,0.95
2023-05-18T08:58:07.186Z,1.20
2023-05-18T09:00:35.062Z,0.68
2023-05-18T09:03:03.255Z,0.70
2023-05-18T09:05:31.139Z,0.80
2023-05-18T09:07:58.682Z,1.00
2023-05-18T09:10:26.676Z,0.80
2023-05-18T09:12:55.690Z,0.93
2023-05-18T09:15:25.591Z,0.88
2023-05-18T09:17:53.071Z,0.75
2023-05-18T09:20:21.082Z,0.68
2023-05-18T09:22:51.395Z,0.60
2023-05-18T09:25:19.908Z,0.70
2023-05-18T09:27:49.089Z,0.70
2023-05-18T09:30:16.318Z,1.15
2023-05-18T09:32:45.028Z,0.93
2023-05-18T09:35:12.716Z,0.85
2023-05-18T09:37:42.714Z,0.98
2023-05-18T09:40:10.227Z,0.93
2023-05-18T09:42:38.336Z,0.95
2023-05-18T09:45:28.520Z,1.00
2023-05-18T09:47:57.258Z,0.70
2023-05-18T09:50:25.098Z,0.88
2023-05-18T09:52:52.381Z,0.70
2023-05-18T09:55:20.271Z,1.10
2023-05-18T09:57:48.249Z,0.60
2023-05-18T10:00:16.930Z,0.88
2023-05-18T10:02:48.766Z,0.90
2023-05-18T10:05:20.246Z,0.80
2023-05-18T10:07:48.507Z,1.08
2023-05-18T10:10:18.550Z,1.17
2023-05-18T10:12:45.809Z,0.98
2023-05-18T10:15:16.564Z,0.73
2023-05-18T10:17:45.332Z,1.05
2023-05-18T10:20:15.202Z,0.82
2023-05-18T10:22:42.709Z,1.40
2023-05-18T10:25:11.642Z,1.10
2023-05-18T10:27:39.725Z,0.85
2023-05-18T10:30:08.194Z,0.95
2023-05-18T10:32:37.095Z,0.60
2023-05-18T10:35:05.499Z,0.80
2023-05-18T10:37:34.355Z,1.00
2023-05-18T10:40:02.315Z,0.80
2023-05-18T10:42:30.731Z,1.00
2023-05-18T10:44:59.645Z,0.82
2023-05-18T10:47:29.463Z,0.60
2023-05-18T10:49:59.656Z,0.73
2023-05-18T10:52:32.049Z,0.60
2023-05-18T10:55:04.412Z,0.80
2023-05-18T10:57:36.017Z,0.90
2023-05-18T11:00:03.873Z,0.98
2023-05-18T11:02:31.583Z,0.85
2023-05-18T11:04:58.844Z,0.90
2023-05-18T11:07:28.504Z,0.80
2023-05-18T11:09:56.153Z,0.95
2023-05-18T11:12:23.475Z,0.90
2023-05-18T11:14:54.474Z,1.00
2023-05-18T11:17:22.880Z,0.73
2023-05-18T11:20:11.191Z,0.80
2023-05-18T11:22:57.173Z,1.10
2023-05-18T11:25:34.112Z,0.75
2023-05-18T11:28:05.725Z,0.73
2023-05-18T11:30:36.584Z,0.90
2023-05-18T11:33:09.887Z,0.80
2023-05-18T11:35:55.425Z,0.73
2023-05-18T11:38:23.204Z,0.75
2023-05-18T11:40:51.219Z,0.88
2023-05-18T11:43:22.202Z,1.00
2023-05-18T11:45:58.771Z,0.70
2023-05-18T11:48:27.300Z,0.88
2023-05-18T11:50:55.153Z,0.63
2023-05-18T11:53:26.226Z,0.77
2023-05-18T11:55:54.799Z,0.82
2023-05-18T11:58:22.629Z,0.82
2023-05-18T12:00:50.051Z,0.90
2023-05-18T12:03:17.683Z,0.90
2023-05-18T12:05:49.323Z,0.77
2023-05-18T12:08:20.075Z,1.00
2023-05-18T12:10:47.498Z,1.02
2023-05-18T12:13:17.634Z,1.10
2023-05-18T12:15:45.304Z,0.73
2023-05-18T12:18:12.788Z,0.90
2023-05-18T12:20:41.118Z,1.65
2023-05-18T12:23:08.392Z,1.05
2023-05-18T12:25:36.625Z,0.70
2023-05-18T12:28:04.911Z,0.80
2023-05-18T12:30:36.139Z,0.98
2023-05-18T12:33:04.374Z,1.17
2023-05-18T12:35:32.193Z,0.85
2023-05-18T12:38:00.550Z,0.80
2023-05-18T12:40:28.534Z,1.27
2023-05-18T12:42:56.888Z,1.08
2023-05-18T12:45:26.025Z,0.70
2023-05-18T12:47:55.331Z,0.63
2023-05-18T12:50:23.423Z,0.73
2023-05-18T12:52:51.162Z,0.70
2023-05-18T12:55:22.416Z,0.50
2023-05-18T12:58:05.550Z,0.98
2023-05-18T13:00:36.462Z,0.57
2023-05-18T13:03:16.949Z,0.82
2023-05-18T13:05:46.145Z,0.75
2023-05-18T13:08:22.016Z,0.82
2023-05-18T13:11:01.235Z,0.80
2023-05-18T13:13:28.855Z,1.00
2023-05-18T13:15:59.296Z,0.80
2023-05-18T13:18:27.062Z,0.93
2023-05-18T13:20:56.397Z,0.60
2023-05-18T13:23:24.752Z,0.77
2023-05-18T13:25:52.164Z,0.80
2023-05-18T13:28:20.221Z,1.13
2023-05-18T13:30:49.489Z,0.80
2023-05-18T13:33:18.087Z,0.90
2023-05-18T13:35:45.814Z,0.88
2023-05-18T13:38:13.828Z,1.00
2023-05-18T13:40:41.386Z,0.98
2023-05-18T13:43:10.966Z,0.60
2023-05-18T13:45:39.881Z,0.65
2023-05-18T13:48:10.157Z,0.70
2023-05-18T13:50:38.196Z,0.85
2023-05-18T13:53:06.576Z,0.93
2023-05-18T13:55:34.145Z,0.95
2023-05-18T13:58:01.386Z,0.70
2023-05-18T14:00:28.709Z,0.80
2023-05-18T14:02:56.766Z,0.60
2023-05-18T14:05:24.244Z,0.80
2023-05-18T14:07:55.075Z,1.10
2023-05-18T14:10:22.372Z,0.85
2023-05-18T14:12:49.735Z,0.77
2023-05-18T14:15:16.972Z,0.93
2023-05-18T14:17:44.480Z,1.55
2023-05-18T14:20:12.787Z,0.80
2023-05-18T14:22:40.356Z,0.65
2023-05-18T14:25:07.920Z,0.88
2023-05-18T14:27:35.118Z,0.70
2023-05-18T14:30:02.389Z,0.90
2023-05-18T14:32:29.848Z,0.90
2023-05-18T14:34:58.540Z,0.70
2023-05-18T14:37:25.954Z,1.23
2023-05-18T14:39:53.277Z,1.23
2023-05-18T14:42:20.699Z,0.70
2023-05-18T14:44:47.958Z,0.80
2023-05-18T14:47:15.200Z,1.42
2023-05-18T14:49:42.521Z,0.75
2023-05-18T14:52:09.915Z,1.08
2023-05-18T14:54:37.407Z,0.90
2023-05-18T14:57:05.102Z,1.20
2023-05-18T14:59:33.907Z,0.90
2023-05-18T15:02:01.182Z,0.90
2023-05-18T15:04:28.394Z,0.70
2023-05-18T15:06:56.754Z,0.90
2023-05-18T15:09:26.721Z,0.85
2023-05-18T15:11:54.660Z,1.00
2023-05-18T15:14:22.097Z,0.75
2023-05-18T15:16:49.567Z,0.90
2023-05-18T15:19:17.166Z,0.85
2023-05-18T15:21:48.961Z,0.70
2023-05-18T15:24:16.376Z,1.10
2023-05-18T15:26:43.709Z,1.10
2023-05-18T15:29:11.032Z,0.82
2023-05-18T15:31:40.019Z,0.90
2023-05-18T15:34:10.996Z,0.90
2023-05-18T15:36:38.826Z,1.00
2023-05-18T15:39:06.294Z,1.10
2023-05-18T15:41:36.952Z,0.75
2023-05-18T15:44:04.455Z,1.08
2023-05-18T15:46:35.190Z,1.00
2023-05-18T15:49:10.030Z,0.95
2023-05-18T15:51:37.443Z,0.85
2023-05-18T15:54:05.056Z,0.98
2023-05-18T15:56:36.977Z,0.80
2023-05-18T15:59:06.994Z,0.95
2023-05-18T16:01:34.373Z,0.90
2023-05-18T16:04:05.159Z,0.82
2023-05-18T16:06:33.738Z,0.80
2023-05-18T16:09:01.216Z,1.15
2023-05-18T16:11:29.656Z,0.93
2023-05-18T16:13:57.242Z,1.17
2023-05-18T16:16:25.430Z,1.10
2023-05-18T16:18:52.830Z,0.77
2023-05-18T16:21:20.089Z,1.00
2023-05-18T16:23:47.612Z,0.88
2023-05-18T16:26:14.949Z,1.17
2023-05-18T16:28:42.159Z,1.17
2023-05-18T16:31:11.632Z,1.10
2023-05-18T16:33:39.049Z,1.00
2023-05-18T16:36:06.508Z,1.13
2023-05-18T16:38:37.460Z,1.10
2023-05-18T16:41:05.302Z,1.13
2023-05-18T16:43:32.644Z,2.13
2023-05-18T16:46:00.029Z,1.20
2023-05-18T16:48:27.314Z,1.00
2023-05-18T16:50:54.480Z,1.50
2023-05-18T16:53:21.741Z,1.17
2023-05-18T16:55:49.567Z,1.45
2023-05-18T16:58:16.898Z,1.50
2023-05-18T17:00:44.185Z,1.00
2023-05-18T17:03:11.719Z,1.35
2023-05-18T17:05:39.553Z,1.02
2023-05-18T17:08:06.877Z,1.20
2023-05-18T17:10:35.610Z,0.98
2023-05-18T17:13:03.135Z,1.35
2023-05-18T17:15:31.016Z,1.40
2023-05-18T17:17:58.549Z,1.13
2023-05-18T17:20:26.200Z,1.10
2023-05-18T17:22:53.475Z,3.50
2023-05-18T17:25:21.018Z,1.58
2023-05-18T17:27:48.460Z,1.10
2023-05-18T17:30:15.775Z,1.23
2023-05-18T17:32:45.429Z,1.35
2023-05-18T17:35:14.497Z,1.00
2023-05-18T17:37:41.880Z,1.30
2023-05-18T17:40:09.803Z,1.40
2023-05-18T17:42:37.077Z,1.95
2023-05-18T17:45:04.379Z,1.92
2023-05-18T17:47:31.690Z,2.22
2023-05-18T17:49:59.399Z,1.55
2023-05-18T17:52:26.671Z,1.65
2023-05-18T17:54:53.885Z,2.42
2023-05-18T17:57:23.010Z,3.13
2023-05-18T17:59:51.208Z,2.40
2023-05-18T18:02:18.415Z,2.13
2023-05-18T18:04:45.725Z,1.50
2023-05-18T18:07:13.013Z,1.67
2023-05-18T18:09:41.008Z,1.67
2023-05-18T18:12:08.502Z,1.40
2023-05-18T18:14:35.694Z,1.20
2023-05-18T18:17:03.431Z,1.30
2023-05-18T18:19:30.693Z,1.13
2023-05-18T18:21:58.431Z,1.23
2023-05-18T18:24:25.694Z,1.20
2023-05-18T18:26:52.974Z,1.15
2023-05-18T18:29:20.245Z,1.63
2023-05-18T18:31:47.977Z,1.70
2023-05-18T18:34:15.295Z,1.38
2023-05-18T18:36:42.524Z,1.55
2023-05-18T18:39:09.912Z,1.80
2023-05-18T18:41:37.188Z,1.67
2023-05-18T18:44:04.394Z,2.03
2023-05-18T18:46:31.738Z,1.98
2023-05-18T18:48:59.978Z,1.63
2023-05-18T18:51:27.233Z,2.08
2023-05-18T18:53:54.462Z,1.50
2023-05-18T18:56:24.189Z,2.00
2023-05-18T18:58:51.789Z,2.65
2023-05-18T19:01:19.364Z,3.20
2023-05-18T19:03:46.663Z,3.00
2023-05-18T19:06:17.326Z,2.75
2023-05-18T19:08:44.655Z,2.92
2023-05-18T19:11:11.983Z,2.47
2023-05-18T19:13:39.167Z,2.85
2023-05-18T19:16:06.806Z,2.53
2023-05-18T19:18:34.086Z,2.63
2023-05-18T19:21:01.497Z,2.85
2023-05-18T19:23:28.789Z,3.60
2023-05-18T19:25:56.027Z,3.90
2023-05-18T19:28:23.393Z,4.90
2023-05-18T19:30:50.656Z,7.75
2023-05-18T19:33:17.914Z,6.90
2023-05-18T19:35:45.534Z,7.13
2023-05-18T19:38:13.631Z,9.45
2023-05-18T19:40:41.038Z,11.85
2023-05-18T19:43:08.778Z,9.18
2023-05-18T19:45:37.177Z,8.55
2023-05-18T19:48:05.149Z,7.90
2023-05-18T19:50:32.507Z,7.07
2023-05-18T19:53:00.429Z,6.53
2023-05-18T19:55:27.703Z,7.18
2023-05-18T19:57:54.924Z,6.18
2023-05-18T20:00:22.230Z,6.93
2023-05-18T20:02:49.415Z,6.07
2023-05-18T20:05:19.381Z,5.50
2023-05-18T20:07:46.698Z,5.40
2023-05-18T20:10:14.010Z,5.57
2023-05-18T20:12:41.405Z,7.43
2023-05-18T20:15:09.050Z,6.45
2023-05-18T20:17:36.896Z,6.28
2023-05-18T20:20:04.859Z,5.50
2023-05-18T20:22:32.037Z,4.90
2023-05-18T20:25:01.143Z,5.67
2023-05-18T20:27:28.480Z,4.90
2023-05-18T20:29:56.244Z,5.00
2023-05-18T20:32:23.483Z,4.30
2023-05-18T20:34:50.750Z,3.87
2023-05-18T20:37:19.425Z,4.03
2023-05-18T20:39:50.926Z,3.85
2023-05-18T20:42:21.828Z,3.63
2023-05-18T20:44:50.807Z,3.20
2023-05-18T20:47:20.474Z,3.13
2023-05-18T20:49:48.548Z,4.13
2023-05-18T20:52:15.833Z,3.20
2023-05-18T20:54:43.998Z,3.30
2023-05-18T20:57:11.181Z,3.80
2023-05-18T20:59:38.382Z,3.83
2023-05-18T21:02:05.952Z,3.77
2023-05-18T21:04:33.267Z,3.60
2023-05-18T21:07:01.102Z,3.83
2023-05-18T21:09:28.373Z,3.37
2023-05-18T21:11:55.904Z,3.40
2023-05-18T21:14:23.107Z,3.70
2023-05-18T21:16:50.386Z,3.50
2023-05-18T21:19:17.706Z,3.17
2023-05-18T21:21:44.933Z,3.00
2023-05-18T21:24:12.140Z,3.93
2023-05-18T21:26:39.381Z,4.43
2023-05-18T21:29:07.287Z,4.93
2023-05-18T21:31:34.713Z,4.30
2023-05-18T21:34:01.966Z,3.77
2023-05-18T21:36:35.952Z,3.80
2023-05-18T21:39:04.162Z,3.53
2023-05-18T21:41:31.600Z,3.60
2023-05-18T21:43:58.879Z,3.40
2023-05-18T21:46:26.197Z,2.80
2023-05-18T21:48:53.492Z,3.50
2023-05-18T21:51:20.766Z,3.47
2023-05-18T21:53:48.034Z,3.77
2023-05-18T21:56:15.211Z,3.60
2023-05-18T21:58:42.461Z,4.07
2023-05-18T22:01:10.256Z,3.40
2023-05-18T22:03:38.060Z,4.17
2023-05-18T22:06:05.229Z,3.70
2023-05-18T22:08:32.480Z,3.40
2023-05-18T22:10:59.664Z,3.33
2023-05-18T22:13:27.181Z,2.67
2023-05-18T22:15:54.397Z,2.70
2023-05-18T22:18:23.707Z,2.67
2023-05-18T22:20:50.919Z,2.77
2023-05-18T22:23:18.180Z,2.77
2023-05-18T22:25:46.056Z,2.10
2023-05-18T22:28:13.244Z,2.07
2023-05-18T22:30:40.466Z,1.67
2023-05-18T22:33:08.456Z,2.13
2023-05-18T22:35:38.793Z,2.20
2023-05-18T22:38:06.180Z,2.10
2023-05-18T22:40:33.473Z,2.00
2023-05-18T22:43:00.880Z,1.87
2023-05-18T22:45:28.144Z,2.03
2023-05-18T22:47:55.600Z,2.00
2023-05-18T22:50:22.831Z,1.70
2023-05-18T22:52:50.326Z,1.70
2023-05-18T22:55:17.539Z,1.77
2023-05-18T22:57:45.457Z,2.20
2023-05-18T23:00:14.073Z,1.43
2023-05-18T23:02:41.999Z,1.97
2023-05-18T23:05:10.228Z,1.50
2023-05-18T23:07:38.696Z,1.80
2023-05-18T23:10:06.559Z,1.90
2023-05-18T23:12:33.815Z,1.60
2023-05-18T23:15:04.319Z,1.60
2023-05-18T23:17:32.509Z,1.43
2023-05-18T23:20:02.742Z,1.50
2023-05-18T23:22:29.943Z,1.23
2023-05-18T23:24:58.699Z,1.30
2023-05-18T23:27:25.952Z,1.30
2023-05-18T23:29:53.226Z,1.43
2023-05-18T23:32:21.738Z,1.37
2023-05-18T23:34:49.439Z,1.20
2023-05-18T23:37:18.298Z,1.53
2023-05-18T23:39:46.623Z,1.33
2023-05-18T23:42:14.486Z,1.23
2023-05-18T23:44:41.917Z,1.33
2023-05-18T23:47:09.278Z,1.37
2023-05-18T23:49:36.762Z,1.00
2023-05-18T23:52:04.231Z,1.10
2023-05-18T23:54:31.532Z,1.30
2023-05-18T23:56:59.808Z,1.00
2023-05-18T23:59:27.296Z,1.00
